createdAt,value
2022-09-21T00:04:29.719Z,9.09
2022-09-21T00:09:33.338Z,8.89
2022-09-21T00:14:36.984Z,8.85
2022-09-21T00:19:42.047Z,8.95
2022-09-21T00:24:45.750Z,9.23
2022-09-21T00:29:49.565Z,9.07
2022-09-21T00:34:54.974Z,9.31
2022-09-21T00:39:58.736Z,9.01
2022-09-21T00:45:02.462Z,8.65
2022-09-21T00:50:11.615Z,8.80
2022-09-21T00:55:22.318Z,9.14
2022-09-21T01:00:26.171Z,9.14
2022-09-21T01:05:31.581Z,9.30
2022-09-21T01:10:48.609Z,9.32
2022-09-21T01:16:03.477Z,9.77
2022-09-21T01:21:24.265Z,9.64
2022-09-21T01:26:45.469Z,9.69
2022-09-21T01:31:56.630Z,9.01
2022-09-21T01:37:07.566Z,8.87
2022-09-21T01:42:13.454Z,8.68
2022-09-21T01:47:19.849Z,8.92
2022-09-21T01:52:32.374Z,9.77
2022-09-21T01:57:44.017Z,9.48
2022-09-21T02:02:53.161Z,9.62
2022-09-21T02:07:58.417Z,9.12
2022-09-21T02:13:07.027Z,9.01
2022-09-21T02:18:23.009Z,9.32
2022-09-21T02:23:34.236Z,8.68
2022-09-21T02:28:44.756Z,8.99
2022-09-21T02:33:59.775Z,8.62
2022-09-21T02:39:08.452Z,8.89
2022-09-21T02:44:16.625Z,8.75
2022-09-21T02:49:26.956Z,9.13
2022-09-21T02:54:33.495Z,8.48
2022-09-21T02:59:37.165Z,9.21
2022-09-21T03:04:43.551Z,9.02
2022-09-21T03:09:47.300Z,9.41
2022-09-21T03:14:51.361Z,9.98
2022-09-21T03:19:56.650Z,9.77
2022-09-21T03:25:00.289Z,9.62
2022-09-21T03:30:04.199Z,9.97
2022-09-21T03:35:09.913Z,9.99
2022-09-21T03:40:13.744Z,9.11
2022-09-21T03:45:17.546Z,9.15
2022-09-21T03:50:22.548Z,9.24
2022-09-21T03:55:27.477Z,9.46
2022-09-21T04:00:31.603Z,9.81
2022-09-21T04:05:36.604Z,9.75
2022-09-21T04:10:42.746Z,9.55
2022-09-21T04:15:46.413Z,9.70
2022-09-21T04:20:51.710Z,9.07
2022-09-21T04:25:58.065Z,9.55
2022-09-21T04:31:01.917Z,9.47
2022-09-21T04:36:08.021Z,9.49
2022-09-21T04:41:11.898Z,9.90
2022-09-21T04:46:17.702Z,10.27
2022-09-21T04:51:22.673Z,9.43
2022-09-21T04:56:26.277Z,9.74
2022-09-21T05:01:30.001Z,9.64
2022-09-21T05:06:35.519Z,9.44
2022-09-21T05:11:40.471Z,9.82
2022-09-21T05:16:44.244Z,9.15
2022-09-21T05:21:49.203Z,9.18
2022-09-21T05:26:52.956Z,9.41
2022-09-21T05:32:02.637Z,9.39
2022-09-21T05:37:15.233Z,9.07
2022-09-21T05:42:19.390Z,9.38
2022-09-21T05:47:27.544Z,9.37
2022-09-21T05:52:40.643Z,10.17
2022-09-21T05:57:52.361Z,9.18
2022-09-21T06:03:16.926Z,9.52
2022-09-21T06:08:22.685Z,9.60
2022-09-21T06:13:26.667Z,9.43
2022-09-21T06:18:30.317Z,9.66
2022-09-21T06:23:36.029Z,9.98
2022-09-21T06:28:39.719Z,9.55
2022-09-21T06:33:48.018Z,10.16
2022-09-21T06:38:54.240Z,10.14
2022-09-21T06:43:58.045Z,10.63
2022-09-21T06:49:01.988Z,9.71
2022-09-21T06:54:07.051Z,10.12
2022-09-21T06:59:15.233Z,9.97
2022-09-21T07:04:21.967Z,10.31
2022-09-21T07:14:53.781Z,9.79
2022-09-21T07:19:57.464Z,9.91
2022-09-21T07:25:02.737Z,9.95
2022-09-21T07:30:07.974Z,10.38
2022-09-21T07:35:12.093Z,10.51
2022-09-21T07:40:19.853Z,10.61
2022-09-21T07:45:25.840Z,9.51
2022-09-21T07:50:29.680Z,9.90
2022-09-21T07:55:34.752Z,10.54
2022-09-21T08:00:38.653Z,10.65
2022-09-21T08:05:42.317Z,11.16
2022-09-21T08:10:47.285Z,11.11
2022-09-21T08:15:59.230Z,11.08
2022-09-21T08:21:03.539Z,10.33
2022-09-21T08:26:09.084Z,10.54
2022-09-21T08:31:12.985Z,11.08
2022-09-21T08:40:27.317Z,11.27
2022-09-21T08:45:34.906Z,10.99
2022-09-21T08:50:42.500Z,11.23
2022-09-21T08:55:47.618Z,11.65
2022-09-21T09:01:06.150Z,11.53
2022-09-21T09:06:17.577Z,11.46
2022-09-21T09:11:34.935Z,12.18
2022-09-21T09:16:47.844Z,11.82
2022-09-21T09:21:51.594Z,11.89
2022-09-21T09:27:04.423Z,11.77
2022-09-21T09:32:16.910Z,11.88
2022-09-21T09:37:26.166Z,13.08
2022-09-21T09:42:44.595Z,13.06
2022-09-21T09:48:17.718Z,12.50
2022-09-21T09:53:24.601Z,12.15
2022-09-21T09:58:39.290Z,12.73
2022-09-21T10:03:43.075Z,13.07
2022-09-21T10:08:47.806Z,13.23
2022-09-21T10:13:54.041Z,13.08
2022-09-21T10:19:01.683Z,13.74
2022-09-21T10:24:08.720Z,12.84
2022-09-21T10:29:30.294Z,14.10
2022-09-21T10:34:36.621Z,13.51
2022-09-21T10:39:47.839Z,12.35
2022-09-21T10:45:05.251Z,13.00
2022-09-21T10:50:24.776Z,13.25
2022-09-21T10:55:32.163Z,13.87
2022-09-21T11:00:43.794Z,13.72
2022-09-21T11:05:51.974Z,13.97
2022-09-21T11:11:10.016Z,12.97
2022-09-21T11:16:22.907Z,12.30
2022-09-21T11:21:36.377Z,11.78
2022-09-21T11:26:45.452Z,10.65
2022-09-21T11:32:06.053Z,10.53
2022-09-21T11:37:20.048Z,10.53
2022-09-21T11:42:42.945Z,11.17
2022-09-21T11:48:07.013Z,12.16
2022-09-21T11:53:38.258Z,14.27
2022-09-21T12:27:49.992Z,9.95
2022-09-21T12:33:00.764Z,10.87
2022-09-21T12:38:13.756Z,12.81
2022-09-21T12:43:29.615Z,13.14
2022-09-21T12:48:35.165Z,12.44
2022-09-21T12:53:44.509Z,14.51
2022-09-21T12:59:08.114Z,14.25
2022-09-21T13:04:26.697Z,13.26
2022-09-21T13:09:32.178Z,13.65
2022-09-21T13:14:44.605Z,13.71
2022-09-21T13:19:58.692Z,13.26
2022-09-21T13:25:06.185Z,12.55
2022-09-21T13:30:35.760Z,12.71
2022-09-21T13:36:04.832Z,13.39
2022-09-21T13:41:40.251Z,12.83
2022-09-21T13:46:57.692Z,14.61
2022-09-21T13:52:05.127Z,13.80
2022-09-21T13:57:22.307Z,12.90
2022-09-21T14:02:33.194Z,12.41
2022-09-21T14:12:49.670Z,13.73
2022-09-21T14:18:20.737Z,13.85
2022-09-21T14:23:29.765Z,12.86
2022-09-21T14:28:38.544Z,12.88
2022-09-21T14:33:48.287Z,14.66
2022-09-21T14:38:58.259Z,15.07
2022-09-21T14:44:02.504Z,14.04
2022-09-21T14:49:25.076Z,14.72
2022-09-21T14:54:38.632Z,13.82
2022-09-21T15:00:08.479Z,13.35
2022-09-21T15:05:24.441Z,14.13
2022-09-21T15:10:55.015Z,14.43
2022-09-21T15:16:09.852Z,14.41
2022-09-21T15:21:24.293Z,14.51
2022-09-21T15:26:34.522Z,14.57
2022-09-21T15:31:40.783Z,12.98
2022-09-21T15:36:52.199Z,11.45
2022-09-21T15:42:18.068Z,11.59
2022-09-21T15:47:26.163Z,11.20
2022-09-21T15:52:37.954Z,9.63
2022-09-21T15:57:43.954Z,9.53
2022-09-21T16:03:04.673Z,9.54
2022-09-21T16:08:22.618Z,9.56
2022-09-21T16:13:44.264Z,9.65
2022-09-21T16:18:51.112Z,10.65
2022-09-21T16:23:58.304Z,10.53
2022-09-21T16:29:23.602Z,10.66
2022-09-21T16:34:36.832Z,11.68
2022-09-21T16:39:42.303Z,10.99
2022-09-21T16:44:47.134Z,10.33
2022-09-21T16:49:51.160Z,10.55
2022-09-21T16:54:58.690Z,9.96
2022-09-21T17:00:02.970Z,10.53
2022-09-21T17:05:08.275Z,10.33
2022-09-21T17:10:16.481Z,11.00
2022-09-21T17:15:20.386Z,10.90
2022-09-21T17:20:30.004Z,11.47
2022-09-21T17:25:36.847Z,11.87
2022-09-21T17:30:42.592Z,11.88
2022-09-21T17:35:46.979Z,12.54
2022-09-21T17:40:52.914Z,11.53
2022-09-21T17:46:03.955Z,11.45
2022-09-21T17:51:09.027Z,11.14
2022-09-21T17:56:26.717Z,11.22
2022-09-21T18:01:33.887Z,11.28
2022-09-21T18:06:38.581Z,11.61
2022-09-21T18:12:02.815Z,11.51
2022-09-21T18:17:23.756Z,11.13
2022-09-21T18:22:35.715Z,10.96
2022-09-21T18:27:41.436Z,10.83
2022-09-21T18:32:59.017Z,10.67
2022-09-21T18:38:17.083Z,11.14
2022-09-21T18:43:30.750Z,10.62
2022-09-21T18:48:51.739Z,10.56
2022-09-21T18:53:57.141Z,10.47
2022-09-21T18:59:03.009Z,10.48
2022-09-21T19:04:07.768Z,10.33
2022-09-21T19:09:21.914Z,10.47
2022-09-21T19:14:38.427Z,10.75
2022-09-21T19:19:56.617Z,9.81
2022-09-21T19:25:08.615Z,10.57
2022-09-21T19:30:15.115Z,10.98
2022-09-21T19:35:22.956Z,10.72
2022-09-21T19:40:29.974Z,10.84
2022-09-21T19:45:46.202Z,10.83
2022-09-21T19:50:54.748Z,9.97
2022-09-21T19:56:17.204Z,9.62
2022-09-21T20:01:22.957Z,9.87
2022-09-21T20:06:29.867Z,10.31
2022-09-21T20:11:43.078Z,10.80
2022-09-21T20:16:53.208Z,10.98
2022-09-21T20:22:04.943Z,10.02
2022-09-21T20:27:21.227Z,10.43
2022-09-21T20:32:26.551Z,10.42
2022-09-21T20:37:30.362Z,9.76
2022-09-21T20:42:38.312Z,11.02
2022-09-21T20:47:43.842Z,11.28
2022-09-21T20:52:47.846Z,10.83
2022-09-21T20:57:51.553Z,10.97
2022-09-21T21:02:58.667Z,10.95
2022-09-21T21:08:03.383Z,10.63
2022-09-21T21:13:07.274Z,9.43
2022-09-21T21:18:12.826Z,10.20
2022-09-21T21:23:16.473Z,9.92
2022-09-21T21:28:20.822Z,9.18
2022-09-21T21:33:25.975Z,9.61
2022-09-21T21:38:29.645Z,9.78
2022-09-21T21:43:34.451Z,10.05
2022-09-21T21:48:40.876Z,9.69
2022-09-21T21:53:45.521Z,9.79
2022-09-21T21:58:53.340Z,9.58
2022-09-21T22:03:59.913Z,9.56
2022-09-21T22:09:05.433Z,9.81
2022-09-21T22:14:09.657Z,9.96
2022-09-21T22:19:14.775Z,10.56
2022-09-21T22:24:18.712Z,10.51
2022-09-21T22:29:22.425Z,9.68
2022-09-21T22:34:27.492Z,9.37
2022-09-21T22:39:32.286Z,9.47
2022-09-21T22:44:35.986Z,9.36
2022-09-21T22:49:41.045Z,9.77
2022-09-21T22:54:44.734Z,9.90
2022-09-21T22:59:48.638Z,10.29
2022-09-21T23:04:53.600Z,10.03
2022-09-21T23:09:57.381Z,9.33
2022-09-21T23:15:01.063Z,9.55
2022-09-21T23:20:07.102Z,9.77
2022-09-21T23:25:10.738Z,10.34
2022-09-21T23:30:14.458Z,9.41
2022-09-21T23:35:19.556Z,9.22
2022-09-21T23:40:23.266Z,10.02
2022-09-21T23:45:26.884Z,10.46
2022-09-21T23:50:32.092Z,10.26
2022-09-21T23:55:35.758Z,9.57
